Terminal Aerodrome Forecast
Issued by NWS

Home | Current Version | Previous Version | Text Only | Print | Product List | Glossary On
Versions: 1 2 3 4 5 6 7 8 9 10 11 12 13 14 15 16 17 18 19 20 21 22
000
FTUS41 KGYX 242324
TAFRKD
TAF
KRKD 242324Z 2500/2524 36007KT P6SM VCSH SCT020 BKN030 OVC070
      TEMPO 2500/2504 -SHRA BKN015 OVC030
     FM250400 31005KT P6SM SCT030 BKN040 OVC070
     FM251200 27006KT P6SM SCT045 BKN100
     FM251800 22005KT P6SM SCT120
      AMD LTD TO CLD VIS AND WIND=

USA.gov is the U.S. government's official web portal to all federal, state and local government web resources and services.